createdAt,value
2022-08-24T00:00:33.710Z,21.00
2022-08-24T00:02:36.325Z,20.90
2022-08-24T00:04:39.169Z,20.80
2022-08-24T00:06:41.829Z,20.80
2022-08-24T00:08:44.656Z,20.80
2022-08-24T00:10:47.255Z,20.60
2022-08-24T00:12:50.337Z,20.60
2022-08-24T00:14:53.774Z,20.60
2022-08-24T00:16:57.064Z,20.60
2022-08-24T00:19:00.125Z,20.60
2022-08-24T00:21:04.151Z,20.60
2022-08-24T00:23:07.011Z,20.60
2022-08-24T00:25:10.901Z,20.60
2022-08-24T00:27:13.543Z,20.60
2022-08-24T00:31:31.943Z,20.50
2022-08-24T00:33:34.669Z,20.50
2022-08-24T00:35:37.320Z,20.50
2022-08-24T00:37:40.763Z,20.60
2022-08-24T00:39:43.457Z,20.50
2022-08-24T00:41:48.083Z,20.50
2022-08-24T00:43:54.671Z,20.50
2022-08-24T00:46:02.243Z,20.30
2022-08-24T00:48:06.816Z,20.30
2022-08-24T00:50:11.525Z,20.30
2022-08-24T00:52:15.766Z,20.30
2022-08-24T00:54:18.707Z,20.30
2022-08-24T00:56:23.194Z,20.30
2022-08-24T00:58:28.219Z,20.30
2022-08-24T01:00:32.710Z,20.10
2022-08-24T01:02:37.279Z,20.10
2022-08-24T01:04:41.959Z,20.00
2022-08-24T01:06:44.922Z,20.00
2022-08-24T01:08:47.610Z,20.00
2022-08-24T01:10:54.158Z,20.00
2022-08-24T01:13:01.057Z,20.00
2022-08-24T01:15:02.809Z,19.90
2022-08-24T01:17:40.619Z,19.90
2022-08-24T01:22:01.886Z,19.90
2022-08-24T01:24:10.131Z,19.80
2022-08-24T01:26:15.539Z,19.80
2022-08-24T01:30:37.885Z,19.70
2022-08-24T01:32:41.922Z,19.70
2022-08-24T01:34:45.840Z,19.70
2022-08-24T01:36:49.967Z,19.70
2022-08-24T01:38:54.763Z,19.70
2022-08-24T01:41:01.761Z,19.70
2022-08-24T01:43:07.489Z,19.60
2022-08-24T01:45:11.873Z,19.60
2022-08-24T01:47:17.014Z,19.50
2022-08-24T01:51:39.455Z,19.40
2022-08-24T01:53:43.057Z,19.40
2022-08-24T01:55:45.923Z,19.40
2022-08-24T02:00:07.482Z,19.50
2022-08-24T02:02:14.360Z,19.40
2022-08-24T02:04:17.701Z,19.30
2022-08-24T02:06:23.029Z,19.30
2022-08-24T02:08:25.685Z,19.20
2022-08-24T02:10:28.737Z,19.10
2022-08-24T02:12:31.397Z,19.00
2022-08-24T02:14:34.225Z,19.00
2022-08-24T02:16:38.601Z,19.00
2022-08-24T02:18:41.650Z,19.00
2022-08-24T02:20:44.893Z,19.00
2022-08-24T02:22:47.593Z,19.00
2022-08-24T02:24:51.556Z,19.00
2022-08-24T02:26:54.254Z,19.00
2022-08-24T02:28:56.915Z,19.00
2022-08-24T02:31:01.619Z,19.00
2022-08-24T02:33:06.469Z,19.00
2022-08-24T02:35:09.619Z,18.90
2022-08-24T02:37:12.295Z,18.90
2022-08-24T02:39:15.562Z,18.90
2022-08-24T02:41:19.502Z,18.80
2022-08-24T02:43:22.468Z,18.80
2022-08-24T02:45:27.022Z,18.80
2022-08-24T02:47:38.336Z,18.70
2022-08-24T02:49:52.813Z,18.70
2022-08-24T02:51:57.344Z,18.60
2022-08-24T02:54:01.763Z,18.50
2022-08-24T02:56:04.847Z,18.30
2022-08-24T02:58:08.614Z,18.10
2022-08-24T03:00:13.633Z,18.00
2022-08-24T03:02:18.532Z,17.90
2022-08-24T03:04:21.412Z,17.80
2022-08-24T03:06:24.155Z,17.90
2022-08-24T03:08:26.822Z,17.90
2022-08-24T03:10:31.299Z,18.00
2022-08-24T03:12:34.543Z,18.00
2022-08-24T03:14:37.444Z,18.00
2022-08-24T03:16:40.273Z,18.10
2022-08-24T03:18:43.342Z,18.20
2022-08-24T03:20:47.020Z,18.20
2022-08-24T03:22:49.774Z,18.20
2022-08-24T03:24:52.826Z,18.20
2022-08-24T03:26:55.580Z,18.10
2022-08-24T03:28:59.101Z,18.10
2022-08-24T03:31:02.947Z,18.10
2022-08-24T03:33:06.554Z,18.10
2022-08-24T03:35:09.994Z,18.10
2022-08-24T03:37:12.667Z,18.10
2022-08-24T03:39:15.978Z,18.10
2022-08-24T03:41:18.814Z,18.00
2022-08-24T03:43:39.415Z,18.10
2022-08-24T03:45:43.149Z,18.00
2022-08-24T03:47:45.892Z,18.10
2022-08-24T03:49:48.786Z,18.00
2022-08-24T03:51:52.338Z,18.00
2022-08-24T03:53:58.162Z,18.00
2022-08-24T03:56:06.999Z,18.00
2022-08-24T03:58:07.558Z,18.10
2022-08-24T04:00:11.848Z,18.10
2022-08-24T04:02:16.418Z,18.10
2022-08-24T04:04:19.126Z,18.00
2022-08-24T04:06:22.787Z,18.00
2022-08-24T04:08:25.465Z,18.00
2022-08-24T04:10:28.673Z,18.00
2022-08-24T04:14:45.710Z,17.80
2022-08-24T04:16:57.510Z,17.70
2022-08-24T04:18:57.123Z,17.50
2022-08-24T04:20:59.812Z,17.40
2022-08-24T04:23:02.637Z,17.40
2022-08-24T04:25:09.076Z,17.30
2022-08-24T04:27:11.516Z,17.30
2022-08-24T04:29:15.167Z,17.30
2022-08-24T04:31:19.744Z,17.30
2022-08-24T04:33:22.923Z,17.30
2022-08-24T04:35:25.720Z,17.30
2022-08-24T04:37:29.245Z,17.40
2022-08-24T04:39:33.092Z,17.40
2022-08-24T04:41:36.959Z,17.40
2022-08-24T04:43:42.115Z,17.40
2022-08-24T04:45:45.838Z,17.50
2022-08-24T04:47:48.802Z,17.40
2022-08-24T04:49:51.863Z,17.50
2022-08-24T04:51:54.561Z,17.50
2022-08-24T04:53:57.903Z,17.50
2022-08-24T04:56:01.930Z,17.40
2022-08-24T04:58:05.800Z,17.40
2022-08-24T05:00:10.071Z,17.40
2022-08-24T05:02:13.464Z,17.30
2022-08-24T05:04:16.197Z,17.20
2022-08-24T05:06:19.722Z,17.20
2022-08-24T05:08:22.823Z,17.20
2022-08-24T05:10:25.623Z,17.20
2022-08-24T05:12:30.982Z,17.10
2022-08-24T05:14:35.890Z,17.20
2022-08-24T05:16:38.696Z,17.20
2022-08-24T05:18:43.725Z,17.20
2022-08-24T05:20:46.991Z,17.20
2022-08-24T05:23:01.198Z,17.20
2022-08-24T05:24:57.994Z,17.20
2022-08-24T05:27:00.831Z,17.20
2022-08-24T05:29:03.791Z,17.10
2022-08-24T05:31:09.550Z,17.10
2022-08-24T05:33:13.370Z,17.10
2022-08-24T05:35:16.114Z,17.10
2022-08-24T05:37:19.152Z,17.20
2022-08-24T05:39:23.619Z,17.20
2022-08-24T05:41:28.282Z,17.30
2022-08-24T05:43:32.726Z,17.30
2022-08-24T05:45:35.683Z,17.30
2022-08-24T05:47:38.788Z,17.30
2022-08-24T05:49:43.250Z,17.30
2022-08-24T05:51:46.017Z,17.40
2022-08-24T05:53:48.878Z,17.50
2022-08-24T05:55:52.227Z,17.50
2022-08-24T05:57:56.270Z,17.60
2022-08-24T06:00:00.080Z,17.70
2022-08-24T06:02:04.769Z,17.80
2022-08-24T06:04:07.938Z,17.90
2022-08-24T06:06:11.484Z,17.90
2022-08-24T06:08:14.861Z,18.00
2022-08-24T06:10:35.829Z,18.10
2022-08-24T06:12:22.279Z,18.20
2022-08-24T06:14:27.040Z,18.30
2022-08-24T06:16:33.315Z,18.40
2022-08-24T06:18:36.136Z,18.50
2022-08-24T06:20:41.350Z,18.60
2022-08-24T06:22:44.078Z,18.80
2022-08-24T06:25:04.834Z,18.90
2022-08-24T06:27:22.856Z,19.00
2022-08-24T06:29:27.409Z,19.10
2022-08-24T06:31:40.169Z,19.20
2022-08-24T06:35:57.126Z,19.50
2022-08-24T06:38:00.199Z,19.70
2022-08-24T06:40:03.949Z,19.80
2022-08-24T06:42:08.358Z,19.90
2022-08-24T06:44:11.202Z,20.10
2022-08-24T06:46:15.721Z,20.30
2022-08-24T06:48:20.706Z,20.60
2022-08-24T06:50:24.427Z,20.60
2022-08-24T06:52:27.361Z,20.70
2022-08-24T06:54:30.030Z,20.70
2022-08-24T06:56:32.740Z,20.70
2022-08-24T06:58:36.331Z,20.80
2022-08-24T07:00:40.858Z,20.80
2022-08-24T07:02:43.506Z,20.90
2022-08-24T07:04:47.003Z,21.00
2022-08-24T07:06:51.786Z,21.10
2022-08-24T07:08:56.130Z,21.10
2022-08-24T07:10:59.183Z,21.30
2022-08-24T07:13:03.450Z,21.30
2022-08-24T07:15:11.468Z,21.40
2022-08-24T07:17:12.986Z,21.60
2022-08-24T07:19:16.014Z,21.80
2022-08-24T07:21:20.031Z,21.90
2022-08-24T07:23:34.614Z,22.10
2022-08-24T07:25:29.751Z,22.20
2022-08-24T07:27:33.782Z,22.30
2022-08-24T07:29:53.029Z,22.30
2022-08-24T07:31:45.480Z,22.50
2022-08-24T07:33:49.983Z,22.50
2022-08-24T07:35:52.705Z,22.60
2022-08-24T07:37:57.261Z,22.70
2022-08-24T07:40:00.005Z,22.80
2022-08-24T07:42:13.050Z,23.00
2022-08-24T07:44:07.303Z,23.10
2022-08-24T07:46:10.345Z,23.20
2022-08-24T07:48:14.322Z,23.30
2022-08-24T07:50:20.123Z,23.30
2022-08-24T07:52:22.827Z,23.40
2022-08-24T07:54:26.960Z,23.50
2022-08-24T07:56:29.644Z,23.60
2022-08-24T07:58:33.514Z,23.80
2022-08-24T08:00:36.306Z,23.80
2022-08-24T08:02:40.084Z,23.90
2022-08-24T08:04:43.280Z,23.90
2022-08-24T08:06:45.982Z,23.90
2022-08-24T08:08:48.722Z,24.00
2022-08-24T08:10:51.421Z,24.10
2022-08-24T08:12:55.098Z,24.10
2022-08-24T08:14:57.811Z,24.20
2022-08-24T08:17:00.450Z,24.20
2022-08-24T08:19:11.037Z,24.30
2022-08-24T08:21:14.134Z,24.30
2022-08-24T08:23:34.057Z,24.30
2022-08-24T08:25:38.599Z,24.40
2022-08-24T08:29:45.729Z,24.70
2022-08-24T08:31:49.281Z,24.80
2022-08-24T08:33:52.170Z,24.90
2022-08-24T08:35:57.927Z,25.10
2022-08-24T08:38:01.392Z,25.30
2022-08-24T08:40:05.534Z,25.40
2022-08-24T08:42:27.961Z,25.80
2022-08-24T08:44:36.778Z,26.10
2022-08-24T08:46:41.948Z,26.20
2022-08-24T08:49:11.373Z,26.50
2022-08-24T08:51:22.930Z,26.80
2022-08-24T08:53:48.171Z,27.10
2022-08-24T08:55:54.983Z,27.40
2022-08-24T08:58:01.131Z,27.70
2022-08-24T09:00:15.464Z,27.90
2022-08-24T09:02:19.282Z,27.90
2022-08-24T09:04:42.744Z,27.90
2022-08-24T09:06:54.678Z,28.00
2022-08-24T09:09:19.972Z,28.20
2022-08-24T09:11:25.175Z,28.40
2022-08-24T09:13:32.107Z,28.60
2022-08-24T09:15:40.412Z,28.80
2022-08-24T09:17:47.686Z,28.90
2022-08-24T09:19:57.902Z,28.90
2022-08-24T09:22:06.246Z,29.10
2022-08-24T09:24:14.605Z,29.20
2022-08-24T09:26:20.362Z,29.30
2022-08-24T09:28:30.623Z,29.50
2022-08-24T09:30:35.078Z,29.80
2022-08-24T09:32:41.184Z,29.70
2022-08-24T09:34:47.802Z,29.70
2022-08-24T09:36:53.875Z,29.80
2022-08-24T09:39:01.938Z,30.00
2022-08-24T09:41:11.683Z,30.10
2022-08-24T09:43:29.210Z,30.20
2022-08-24T09:45:41.054Z,30.20
2022-08-24T09:47:52.544Z,30.20
2022-08-24T09:50:12.778Z,30.30
2022-08-24T09:52:26.698Z,30.40
2022-08-24T09:54:47.241Z,30.30
2022-08-24T09:57:09.349Z,30.50
2022-08-24T09:59:06.439Z,30.60
2022-08-24T10:01:11.060Z,30.60
2022-08-24T10:03:21.837Z,30.70
2022-08-24T10:05:36.526Z,30.60
2022-08-24T10:07:39.232Z,30.80
2022-08-24T10:09:48.198Z,31.10
2022-08-24T10:11:52.710Z,31.20
2022-08-24T10:13:57.524Z,31.20
2022-08-24T10:16:09.340Z,31.30
2022-08-24T10:18:17.433Z,31.40
2022-08-24T10:20:23.282Z,31.60
2022-08-24T10:22:30.273Z,31.70
2022-08-24T10:24:37.404Z,31.70
2022-08-24T10:26:42.731Z,31.50
2022-08-24T10:29:01.520Z,31.60
2022-08-24T10:31:09.718Z,31.50
2022-08-24T10:33:15.813Z,31.60
2022-08-24T10:35:20.486Z,31.60
2022-08-24T10:37:37.493Z,31.60
2022-08-24T10:40:02.989Z,31.60
2022-08-24T10:42:10.565Z,31.20
2022-08-24T10:44:18.866Z,31.40
2022-08-24T10:46:40.190Z,31.50
2022-08-24T10:48:48.811Z,31.60
2022-08-24T10:50:55.390Z,31.80
2022-08-24T10:53:06.227Z,31.90
2022-08-24T10:55:15.240Z,32.00
2022-08-24T10:57:20.526Z,32.10
2022-08-24T10:59:25.071Z,32.20
2022-08-24T11:01:30.575Z,32.40
2022-08-24T11:03:35.630Z,32.20
2022-08-24T11:05:40.790Z,31.90
2022-08-24T11:07:54.762Z,31.90
2022-08-24T11:09:59.530Z,32.00
2022-08-24T11:12:04.002Z,32.10
2022-08-24T11:16:26.200Z,31.90
2022-08-24T11:18:34.755Z,31.90
2022-08-24T11:20:39.523Z,32.10
2022-08-24T11:22:44.598Z,32.20
2022-08-24T11:24:48.383Z,32.00
2022-08-24T11:26:55.280Z,32.10
2022-08-24T11:29:00.519Z,31.90
2022-08-24T11:31:03.791Z,31.70
2022-08-24T11:33:08.207Z,31.90
2022-08-24T11:35:23.211Z,31.90
2022-08-24T11:37:32.108Z,31.90
2022-08-24T11:39:35.380Z,32.20
2022-08-24T11:41:39.970Z,32.20
2022-08-24T11:43:47.923Z,32.10
2022-08-24T11:46:07.831Z,32.00
2022-08-24T11:50:33.402Z,31.80
2022-08-24T11:52:39.694Z,31.90
2022-08-24T11:54:44.177Z,32.00
2022-08-24T11:56:50.158Z,32.00
2022-08-24T11:58:54.924Z,31.90
2022-08-24T12:00:59.327Z,32.10
2022-08-24T12:03:05.016Z,32.30
2022-08-24T12:05:25.280Z,32.40
2022-08-24T12:07:33.602Z,32.60
2022-08-24T12:09:46.768Z,32.70
2022-08-24T12:11:51.245Z,32.50
2022-08-24T12:13:55.747Z,32.50
2022-08-24T12:16:01.877Z,32.80
2022-08-24T12:18:06.550Z,33.00
2022-08-24T12:20:12.115Z,33.10
2022-08-24T12:22:15.086Z,33.00
2022-08-24T12:24:19.571Z,32.90
2022-08-24T12:26:24.845Z,32.70
2022-08-24T12:28:29.503Z,32.80
2022-08-24T12:30:32.251Z,32.80
2022-08-24T12:32:38.359Z,33.00
2022-08-24T12:34:45.150Z,33.00
2022-08-24T12:36:50.936Z,32.90
2022-08-24T12:38:55.974Z,32.70
2022-08-24T12:41:00.372Z,32.70
2022-08-24T12:43:06.115Z,32.50
2022-08-24T12:45:10.754Z,32.30
2022-08-24T12:47:18.144Z,32.50
2022-08-24T12:49:23.394Z,32.70
2022-08-24T12:51:28.455Z,32.90
2022-08-24T12:53:50.235Z,33.00
2022-08-24T12:56:18.191Z,32.90
2022-08-24T12:58:34.655Z,33.10
2022-08-24T13:00:35.668Z,33.00
2022-08-24T13:02:45.142Z,33.00
2022-08-24T13:04:46.519Z,33.00
2022-08-24T13:06:50.890Z,33.00
2022-08-24T13:08:55.336Z,33.00
2022-08-24T13:11:01.990Z,33.10
2022-08-24T13:13:10.130Z,33.10
2022-08-24T13:15:26.191Z,33.00
2022-08-24T13:17:30.648Z,32.90
2022-08-24T13:19:35.106Z,33.00
2022-08-24T13:21:42.663Z,33.00
2022-08-24T13:23:45.355Z,33.10
2022-08-24T13:25:58.004Z,33.10
2022-08-24T13:28:06.767Z,33.20
2022-08-24T13:30:11.712Z,33.30
2022-08-24T13:32:17.751Z,33.30
2022-08-24T13:34:50.479Z,33.30
2022-08-24T13:36:58.461Z,33.30
2022-08-24T13:39:03.510Z,33.40
2022-08-24T13:41:08.302Z,33.40
2022-08-24T13:43:12.767Z,33.30
2022-08-24T13:45:23.283Z,33.40
2022-08-24T13:47:28.170Z,33.10
2022-08-24T13:49:35.111Z,33.20
2022-08-24T13:51:40.126Z,33.30
2022-08-24T13:53:46.706Z,33.20
2022-08-24T13:55:51.592Z,33.00
2022-08-24T13:57:56.648Z,33.00
2022-08-24T14:00:04.756Z,33.10
2022-08-24T14:02:12.363Z,33.00
2022-08-24T14:04:31.354Z,32.90
2022-08-24T14:06:37.476Z,33.10
2022-08-24T14:08:43.690Z,33.20
2022-08-24T14:10:53.812Z,33.30
2022-08-24T14:12:59.482Z,33.30
2022-08-24T14:15:09.674Z,33.30
2022-08-24T14:17:48.723Z,33.50
2022-08-24T14:22:16.092Z,33.00
2022-08-24T14:24:23.709Z,33.00
2022-08-24T14:26:44.421Z,32.90
2022-08-24T14:28:47.872Z,33.00
2022-08-24T14:30:54.304Z,33.30
2022-08-24T14:33:10.344Z,33.30
2022-08-24T14:35:17.682Z,33.20
2022-08-24T14:37:22.163Z,33.20
2022-08-24T14:39:27.559Z,33.40
2022-08-24T14:41:54.867Z,33.60
2022-08-24T14:44:06.171Z,33.80
2022-08-24T14:46:10.774Z,33.60
2022-08-24T14:48:16.682Z,33.60
2022-08-24T14:50:22.742Z,33.60
2022-08-24T14:52:35.529Z,33.60
2022-08-24T14:54:41.736Z,33.30
2022-08-24T14:56:51.324Z,33.30
2022-08-24T14:58:56.903Z,33.00
2022-08-24T15:01:05.654Z,32.90
2022-08-24T15:03:12.002Z,32.90
2022-08-24T15:05:19.231Z,33.10
2022-08-24T15:07:25.187Z,33.10
2022-08-24T15:09:29.140Z,33.10
2022-08-24T15:11:32.119Z,32.90
2022-08-24T15:13:38.556Z,32.90
2022-08-24T15:15:43.276Z,32.90
2022-08-24T15:17:49.947Z,32.90
2022-08-24T15:19:54.394Z,33.00
2022-08-24T15:21:59.103Z,33.20
2022-08-24T15:24:16.979Z,33.30
2022-08-24T15:26:21.819Z,33.30
2022-08-24T15:28:25.500Z,33.40
2022-08-24T15:30:29.488Z,33.40
2022-08-24T15:32:43.064Z,33.30
2022-08-24T15:34:48.206Z,33.30
2022-08-24T15:37:00.406Z,33.20
2022-08-24T15:39:05.070Z,32.90
2022-08-24T15:41:11.426Z,32.80
2022-08-24T15:43:14.483Z,32.80
2022-08-24T15:45:17.304Z,33.10
2022-08-24T15:47:22.502Z,33.30
2022-08-24T15:49:28.261Z,33.60
2022-08-24T15:51:33.566Z,33.70
2022-08-24T15:53:38.256Z,33.90
2022-08-24T15:55:42.263Z,33.90
2022-08-24T15:57:45.616Z,33.70
2022-08-24T15:59:49.033Z,33.70
2022-08-24T16:02:14.195Z,33.70
2022-08-24T16:04:19.604Z,33.70
2022-08-24T16:06:27.334Z,33.80
2022-08-24T16:08:33.561Z,33.80
2022-08-24T16:10:38.664Z,33.90
2022-08-24T16:12:41.226Z,33.60
2022-08-24T16:14:46.979Z,33.60
2022-08-24T16:16:49.980Z,33.70
2022-08-24T16:18:54.198Z,33.30
2022-08-24T16:20:58.594Z,33.10
2022-08-24T16:23:03.296Z,33.10
2022-08-24T16:25:12.535Z,32.90
2022-08-24T16:27:17.331Z,32.80
2022-08-24T16:29:40.740Z,32.50
2022-08-24T16:31:46.431Z,32.30
2022-08-24T16:33:49.134Z,32.20
2022-08-24T16:35:51.822Z,32.20
2022-08-24T16:37:55.182Z,32.20
2022-08-24T16:39:57.907Z,32.20
2022-08-24T16:42:03.749Z,32.30
2022-08-24T16:44:08.609Z,32.40
2022-08-24T16:46:12.049Z,32.50
2022-08-24T16:48:14.726Z,32.70
2022-08-24T16:50:18.587Z,32.80
2022-08-24T16:52:21.690Z,32.30
2022-08-24T16:54:25.406Z,32.50
2022-08-24T16:56:28.465Z,32.50
2022-08-24T16:58:32.662Z,32.30
2022-08-24T17:00:35.374Z,32.20
2022-08-24T17:02:38.090Z,32.10
2022-08-24T17:04:42.041Z,32.20
2022-08-24T17:06:44.933Z,32.30
2022-08-24T17:08:47.645Z,32.20
2022-08-24T17:10:50.209Z,32.00
2022-08-24T17:12:52.866Z,32.00
2022-08-24T17:14:55.888Z,31.80
2022-08-24T17:16:59.913Z,31.70
2022-08-24T17:19:03.275Z,31.60
2022-08-24T17:21:06.521Z,31.50
2022-08-24T17:23:09.150Z,31.40
2022-08-24T17:25:12.321Z,31.40
2022-08-24T17:27:15.427Z,31.20
2022-08-24T17:29:19.383Z,31.10
2022-08-24T17:31:24.146Z,31.00
2022-08-24T17:33:26.865Z,30.90
2022-08-24T17:35:30.253Z,30.80
2022-08-24T17:37:33.034Z,30.70
2022-08-24T17:39:36.538Z,30.70
2022-08-24T17:41:39.184Z,30.70
2022-08-24T17:43:41.968Z,30.70
2022-08-24T17:45:44.666Z,30.60
2022-08-24T17:47:47.490Z,30.60
2022-08-24T17:49:50.400Z,30.50
2022-08-24T17:51:54.701Z,30.30
2022-08-24T17:53:57.399Z,30.30
2022-08-24T17:56:00.136Z,30.20
2022-08-24T17:58:02.886Z,30.20
2022-08-24T18:00:08.280Z,30.20
2022-08-24T18:02:12.791Z,30.20
2022-08-24T18:04:15.578Z,30.20
2022-08-24T18:06:19.122Z,30.20
2022-08-24T18:08:21.758Z,29.90
2022-08-24T18:10:25.607Z,29.90
2022-08-24T18:12:28.161Z,29.80
2022-08-24T18:14:31.993Z,29.70
2022-08-24T18:16:34.667Z,29.50
2022-08-24T18:18:37.834Z,29.50
2022-08-24T18:20:41.267Z,29.40
2022-08-24T18:22:44.481Z,29.30
2022-08-24T18:24:47.083Z,29.30
2022-08-24T18:26:49.620Z,29.20
2022-08-24T18:28:52.602Z,29.10
2022-08-24T18:30:55.176Z,29.10
2022-08-24T18:32:58.951Z,29.00
2022-08-24T18:35:01.708Z,29.00
2022-08-24T18:37:04.453Z,28.80
2022-08-24T18:39:07.393Z,28.80
2022-08-24T18:41:10.550Z,28.80
2022-08-24T18:43:14.993Z,28.60
2022-08-24T18:45:18.077Z,28.60
2022-08-24T18:47:20.759Z,28.50
2022-08-24T18:49:23.500Z,28.40
2022-08-24T18:51:27.758Z,28.40
2022-08-24T18:53:32.023Z,28.30
2022-08-24T18:55:36.459Z,28.20
2022-08-24T18:57:39.119Z,28.20
2022-08-24T18:59:41.898Z,28.20
2022-08-24T19:02:05.546Z,28.00
2022-08-24T19:04:13.935Z,27.90
2022-08-24T19:06:14.763Z,27.90
2022-08-24T19:08:18.396Z,27.80
2022-08-24T19:10:24.645Z,27.80
2022-08-24T19:12:30.921Z,27.70
2022-08-24T19:14:35.727Z,27.60
2022-08-24T19:16:39.894Z,27.60
2022-08-24T19:21:00.676Z,27.60
2022-08-24T19:23:09.926Z,27.50
2022-08-24T19:25:16.858Z,27.50
2022-08-24T19:27:20.908Z,27.50
2022-08-24T19:29:53.999Z,27.30
2022-08-24T19:33:46.578Z,27.30
2022-08-24T19:35:52.558Z,27.30
2022-08-24T19:37:56.184Z,27.30
2022-08-24T19:40:00.100Z,27.20
2022-08-24T19:42:04.483Z,27.20
2022-08-24T19:44:47.353Z,27.00
2022-08-24T19:49:03.459Z,26.90
2022-08-24T19:53:28.327Z,26.70
2022-08-24T19:55:32.535Z,26.80
2022-08-24T19:57:42.604Z,26.70
2022-08-24T19:59:46.506Z,26.80
2022-08-24T20:01:50.170Z,26.80
2022-08-24T20:03:54.191Z,26.80
2022-08-24T20:05:57.811Z,26.70
2022-08-24T20:08:02.956Z,26.60
2022-08-24T20:10:12.483Z,26.60
2022-08-24T20:12:13.915Z,26.50
2022-08-24T20:14:18.020Z,26.30
2022-08-24T20:18:39.693Z,26.00
2022-08-24T20:23:01.667Z,25.90
2022-08-24T20:25:07.661Z,25.70
2022-08-24T20:27:13.260Z,25.60
2022-08-24T20:29:16.805Z,25.40
2022-08-24T20:31:28.011Z,25.30
2022-08-24T20:35:49.675Z,25.20
2022-08-24T20:37:53.584Z,25.10
2022-08-24T20:39:58.146Z,25.00
2022-08-24T20:42:01.840Z,24.90
2022-08-24T20:44:08.112Z,24.60
2022-08-24T20:46:11.748Z,24.40
2022-08-24T20:48:16.891Z,24.30
2022-08-24T20:50:23.406Z,24.20
2022-08-24T20:52:27.036Z,24.00
2022-08-24T20:54:30.513Z,23.90
2022-08-24T20:56:37.459Z,23.80
2022-08-24T20:58:41.568Z,23.70
2022-08-24T21:00:45.755Z,23.70
2022-08-24T21:02:49.756Z,23.80
2022-08-24T21:04:53.344Z,23.70
2022-08-24T21:06:57.025Z,23.70
2022-08-24T21:09:00.794Z,23.70
2022-08-24T21:11:06.032Z,23.70
2022-08-24T21:13:09.493Z,23.60
2022-08-24T21:15:13.692Z,23.50
2022-08-24T21:17:17.235Z,23.30
2022-08-24T21:19:20.853Z,23.10
2022-08-24T21:21:24.360Z,23.00
2022-08-24T21:25:43.775Z,22.80
2022-08-24T21:27:48.201Z,22.80
2022-08-24T21:29:51.811Z,22.80
2022-08-24T21:32:13.360Z,22.70
2022-08-24T21:34:35.371Z,22.70
2022-08-24T21:36:41.239Z,22.80
2022-08-24T21:38:45.387Z,22.90
2022-08-24T21:40:49.196Z,22.90
2022-08-24T21:42:52.693Z,22.90
2022-08-24T21:44:56.358Z,23.00
2022-08-24T21:47:00.912Z,23.00
2022-08-24T21:49:04.980Z,23.20
2022-08-24T21:53:28.482Z,23.40
2022-08-24T21:55:30.504Z,23.40
2022-08-24T21:57:34.122Z,23.40
2022-08-24T21:59:38.297Z,23.40
2022-08-24T22:01:43.339Z,23.40
2022-08-24T22:03:47.037Z,23.50
2022-08-24T22:05:50.601Z,23.50
2022-08-24T22:07:54.207Z,23.40
2022-08-24T22:09:57.834Z,23.30
2022-08-24T22:12:01.383Z,23.30
2022-08-24T22:14:05.495Z,23.30
2022-08-24T22:16:09.892Z,23.30
2022-08-24T22:18:13.621Z,23.20
2022-08-24T22:20:22.320Z,23.20
2022-08-24T22:22:22.943Z,23.30
2022-08-24T22:24:26.540Z,23.10
2022-08-24T22:26:30.767Z,23.00
2022-08-24T22:28:35.675Z,23.00
2022-08-24T22:30:41.068Z,23.10
2022-08-24T22:32:46.165Z,23.10
2022-08-24T22:34:50.629Z,23.10
2022-08-24T22:36:56.339Z,23.20
2022-08-24T22:39:00.487Z,23.20
2022-08-24T22:41:04.060Z,23.20
2022-08-24T22:43:07.612Z,23.20
2022-08-24T22:45:11.648Z,23.20
2022-08-24T22:47:15.313Z,23.10
2022-08-24T22:49:20.734Z,23.00
2022-08-24T22:51:24.228Z,22.90
2022-08-24T22:53:27.784Z,22.70
2022-08-24T22:57:51.164Z,22.50
2022-08-24T22:59:53.465Z,22.40
2022-08-24T23:01:57.820Z,22.30
2022-08-24T23:04:03.630Z,22.30
2022-08-24T23:06:08.047Z,22.20
2022-08-24T23:08:11.929Z,22.20
2022-08-24T23:10:15.928Z,22.20
2022-08-24T23:12:22.495Z,22.20
2022-08-24T23:14:26.219Z,22.10
2022-08-24T23:16:32.120Z,22.10
2022-08-24T23:18:53.714Z,22.10
2022-08-24T23:20:57.216Z,22.10
2022-08-24T23:23:00.708Z,22.00
2022-08-24T23:25:05.551Z,22.00
2022-08-24T23:29:26.582Z,21.90
2022-08-24T23:31:30.758Z,21.80
2022-08-24T23:35:50.463Z,21.60
2022-08-24T23:37:53.970Z,21.60
2022-08-24T23:39:58.323Z,21.50
2022-08-24T23:42:01.928Z,21.40
2022-08-24T23:44:08.323Z,21.30
2022-08-24T23:46:12.454Z,21.30
2022-08-24T23:48:16.051Z,21.20
2022-08-24T23:50:19.840Z,21.10
2022-08-24T23:52:28.244Z,21.00
2022-08-24T23:54:29.180Z,21.00
2022-08-24T23:56:34.827Z,20.90
